Change Of Latitude — WDF6082 — position and weather

sailwx.info

Track history (hours):
 
Tides and Currents Weather Stations Pressure Air Temp Water Temp Dewpoint Dewpoint Depression Visibility Wind Speed Wind Dir Waves Ship Positions

Change Of Latitude

Owner: Donrah LLC, Bellingham, WA. More information available from US FCC via Universal Licensing System and Coast Guard Vessel Documentation Center.

Last reported at 2016-Jul-30 19:33 UTC. Time now 2016-Jul-31 07:22 UTC.
Position N 48°28' W 123°17'.

Length 15 m.

Type: Pleasure craft. MMSI: 367470440.

Date/timePositionNaut miles runAvg speedWind from/ knotsBaromVisibWave heightAir tempDewpointWater temp
2016-Jul-30 19:33N 48°28' W 123°17'6 0.1
2016-Jul-28 19:25N 48°24' W 123°23'6 6.5
2016-Jul-28 18:33N 48°27' W 123°15'  
2016-Jul-25 20:33N 49°15' W 123°57'10 9.6
2016-Jul-25 19:33N 49°24' W 124°04'9 9.0
2016-Jul-25 18:32N 49°31' W 124°12'35 8.6
2016-Jul-25 14:26N 49°58' W 124°46'0 0.1
2016-Jul-25 11:23N 49°59' W 124°46'0 0.0
2016-Jul-25 01:30N 49°59' W 124°46'0 0.0
2016-Jul-25 00:18N 49°59' W 124°46'0 0.0
2016-Jul-24 23:30N 49°59' W 124°46'0 0.0
2016-Jul-24 22:30N 49°59' W 124°46'3 2.3
2016-Jul-24 21:23N 50°01' W 124°48'5 6.3
2016-Jul-24 20:31N 50°06' W 124°46'4 4.1
2016-Jul-24 19:33N 50°09' W 124°41'4 4.1
2016-Jul-24 18:32N 50°12' W 124°38'9 7.2
2016-Jul-24 17:21N 50°18' W 124°48'6 7.6
2016-Jul-24 16:33N 50°19' W 124°57'  
Track history (hours):
 
Tides and Currents Weather Stations Pressure Air Temp Water Temp Dewpoint Dewpoint Depression Visibility Wind Speed Wind Dir Waves Ship Positions

Change Of Latitude

Owner: Donrah LLC, Bellingham, WA. More information available from US FCC via Universal Licensing System and Coast Guard Vessel Documentation Center.

Last reported at 2016-Jul-30 19:33 UTC. Time now 2016-Jul-31 07:22 UTC.
Position N 48°28' W 123°17'.

Length 15 m.

Type: Pleasure craft. MMSI: 367470440.

Date/timePositionNaut miles runAvg speedWind from/ knotsBaromVisibWave heightAir tempDewpointWater temp
2016-Jul-30 19:33N 48°28' W 123°17'6 0.1
2016-Jul-28 19:25N 48°24' W 123°23'6 6.5
2016-Jul-28 18:33N 48°27' W 123°15'  
2016-Jul-25 20:33N 49°15' W 123°57'10 9.6
2016-Jul-25 19:33N 49°24' W 124°04'9 9.0
2016-Jul-25 18:32N 49°31' W 124°12'35 8.6
2016-Jul-25 14:26N 49°58' W 124°46'0 0.1
2016-Jul-25 11:23N 49°59' W 124°46'0 0.0
2016-Jul-25 01:30N 49°59' W 124°46'0 0.0
2016-Jul-25 00:18N 49°59' W 124°46'0 0.0
2016-Jul-24 23:30N 49°59' W 124°46'0 0.0
2016-Jul-24 22:30N 49°59' W 124°46'3 2.3
2016-Jul-24 21:23N 50°01' W 124°48'5 6.3
2016-Jul-24 20:31N 50°06' W 124°46'4 4.1
2016-Jul-24 19:33N 50°09' W 124°41'4 4.1
2016-Jul-24 18:32N 50°12' W 124°38'9 7.2
2016-Jul-24 17:21N 50°18' W 124°48'6 7.6
2016-Jul-24 16:33N 50°19' W 124°57'  

Dump ship's entire track history